createdAt,value
2022-08-25T00:00:14.109Z,96977.00
2022-08-25T00:02:41.651Z,96985.00
2022-08-25T00:05:26.035Z,96985.00
2022-08-25T00:07:55.499Z,96979.00
2022-08-25T00:10:22.613Z,96980.00
2022-08-25T00:12:49.723Z,96979.00
2022-08-25T00:15:16.839Z,96989.00
2022-08-25T00:17:44.081Z,96981.00
2022-08-25T00:20:11.233Z,96972.00
2022-08-25T00:22:38.335Z,96976.00
2022-08-25T00:25:05.677Z,96969.00
2022-08-25T00:27:32.881Z,96968.00
2022-08-25T00:30:00.320Z,96979.00
2022-08-25T00:32:27.445Z,96984.00
2022-08-25T00:34:54.557Z,96987.00
2022-08-25T00:37:21.697Z,96989.00
2022-08-25T00:39:48.876Z,96986.00
2022-08-25T00:42:16.441Z,96981.00
2022-08-25T00:44:43.877Z,96991.00
2022-08-25T00:47:11.109Z,96988.00
2022-08-25T00:50:04.524Z,96983.00
2022-08-25T00:52:32.657Z,96992.00
2022-08-25T00:55:08.005Z,96990.00
2022-08-25T00:57:55.897Z,96990.00
2022-08-25T01:00:32.294Z,97004.00
2022-08-25T01:02:59.697Z,97001.00
2022-08-25T01:05:27.073Z,97004.00
2022-08-25T01:08:03.234Z,97002.00
2022-08-25T01:10:34.397Z,97001.00
2022-08-25T01:13:03.296Z,97005.00
2022-08-25T01:15:30.441Z,97001.00
2022-08-25T01:17:57.926Z,97002.00
2022-08-25T01:20:29.488Z,96997.00
2022-08-25T01:22:57.378Z,97001.00
2022-08-25T01:25:40.889Z,97001.00
2022-08-25T01:28:32.865Z,96992.00
2022-08-25T01:31:31.733Z,96997.00
2022-08-25T01:33:59.077Z,96989.00
2022-08-25T01:36:27.168Z,96986.00
2022-08-25T01:38:54.288Z,96986.00
2022-08-25T01:41:22.539Z,96979.00
2022-08-25T01:43:50.030Z,96981.00
2022-08-25T01:46:17.150Z,96973.00
2022-08-25T01:48:44.299Z,96976.00
2022-08-25T01:51:11.407Z,96973.00
2022-08-25T01:53:38.898Z,96980.00
2022-08-25T01:56:09.986Z,96985.00
2022-08-25T01:58:38.167Z,96990.00
2022-08-25T02:01:11.229Z,96981.00
2022-08-25T02:03:38.869Z,96984.00
2022-08-25T02:06:11.662Z,96982.00
2022-08-25T02:08:38.936Z,96977.00
2022-08-25T02:11:06.826Z,96969.00
2022-08-25T02:13:37.223Z,96976.00
2022-08-25T02:16:05.047Z,96979.00
2022-08-25T02:18:48.080Z,96985.00
2022-08-25T02:21:28.970Z,96986.00
2022-08-25T02:24:33.520Z,96986.00
2022-08-25T02:27:14.782Z,96987.00
2022-08-25T02:29:41.891Z,96978.00
2022-08-25T02:32:10.793Z,96984.00
2022-08-25T02:34:38.029Z,96978.00
2022-08-25T02:37:05.256Z,96970.00
2022-08-25T02:39:32.376Z,96969.00
2022-08-25T02:41:59.909Z,96972.00
2022-08-25T02:44:27.019Z,96966.00
2022-08-25T02:46:54.113Z,96965.00
2022-08-25T02:49:21.231Z,96967.00
2022-08-25T02:51:48.349Z,96971.00
2022-08-25T02:54:16.084Z,96972.00
2022-08-25T02:56:43.305Z,96972.00
2022-08-25T02:59:11.407Z,96963.00
2022-08-25T03:01:38.542Z,96955.00
2022-08-25T03:04:07.123Z,96965.00
2022-08-25T03:06:34.222Z,96962.00
2022-08-25T03:09:01.497Z,96953.00
2022-08-25T03:11:28.720Z,96955.00
2022-08-25T03:13:56.539Z,96959.00
2022-08-25T03:16:23.998Z,96952.00
2022-08-25T03:18:55.289Z,96960.00
2022-08-25T03:21:23.185Z,96955.00
2022-08-25T03:23:50.350Z,96959.00
2022-08-25T03:26:36.393Z,96961.00
2022-08-25T03:29:06.434Z,96963.00
2022-08-25T03:31:34.496Z,96964.00
2022-08-25T03:34:01.785Z,96962.00
2022-08-25T03:36:29.082Z,96951.00
2022-08-25T03:38:56.206Z,96952.00
2022-08-25T03:41:29.093Z,96949.00
2022-08-25T03:43:56.734Z,96952.00
2022-08-25T03:46:25.444Z,96946.00
2022-08-25T03:48:52.749Z,96947.00
2022-08-25T03:51:23.775Z,96947.00
2022-08-25T03:53:51.075Z,96949.00
2022-08-25T03:56:18.304Z,96946.00
2022-08-25T03:58:45.598Z,96948.00
2022-08-25T04:01:12.729Z,96935.00
2022-08-25T04:03:39.869Z,96946.00
2022-08-25T04:06:07.356Z,96949.00
2022-08-25T04:08:34.723Z,96947.00
2022-08-25T04:11:13.086Z,96949.00
2022-08-25T04:13:41.870Z,96960.00
2022-08-25T04:16:17.281Z,96955.00
2022-08-25T04:18:44.673Z,96956.00
2022-08-25T04:21:11.926Z,96953.00
2022-08-25T04:23:40.642Z,96956.00
2022-08-25T04:26:08.770Z,96953.00
2022-08-25T04:28:35.870Z,96960.00
2022-08-25T04:31:05.554Z,96955.00
2022-08-25T04:33:32.754Z,96955.00
2022-08-25T04:35:59.922Z,96951.00
2022-08-25T04:38:27.441Z,96953.00
2022-08-25T04:40:58.102Z,96950.00
2022-08-25T04:43:25.446Z,96950.00
2022-08-25T04:45:52.825Z,96939.00
2022-08-25T04:48:19.953Z,96949.00
2022-08-25T04:50:47.067Z,96947.00
2022-08-25T04:53:14.479Z,96949.00
2022-08-25T04:55:42.354Z,96951.00
2022-08-25T04:58:12.082Z,96950.00
2022-08-25T05:00:43.908Z,96939.00
2022-08-25T05:03:11.253Z,96942.00
2022-08-25T05:05:38.603Z,96942.00
2022-08-25T05:08:06.583Z,96935.00
2022-08-25T05:10:33.855Z,96944.00
2022-08-25T05:13:00.995Z,96935.00
2022-08-25T05:15:46.852Z,96939.00
2022-08-25T05:18:18.503Z,96944.00
2022-08-25T05:20:45.647Z,96935.00
2022-08-25T05:23:15.464Z,96933.00
2022-08-25T05:25:42.790Z,96926.00
2022-08-25T05:28:09.935Z,96920.00
2022-08-25T05:30:38.130Z,96919.00
2022-08-25T05:33:05.349Z,96920.00
2022-08-25T05:35:32.471Z,96921.00
2022-08-25T05:37:59.633Z,96918.00
2022-08-25T05:40:26.828Z,96922.00
2022-08-25T05:42:54.430Z,96921.00
2022-08-25T05:45:21.623Z,96921.00
2022-08-25T05:47:48.965Z,96919.00
2022-08-25T05:50:16.517Z,96916.00
2022-08-25T05:52:44.182Z,96914.00
2022-08-25T05:55:11.493Z,96908.00
2022-08-25T05:57:38.603Z,96905.00
2022-08-25T06:00:06.375Z,96899.00
2022-08-25T06:02:44.626Z,96904.00
2022-08-25T06:05:13.552Z,96893.00
2022-08-25T06:07:40.733Z,96895.00
2022-08-25T06:10:09.271Z,96887.00
2022-08-25T06:12:36.379Z,96886.00
2022-08-25T06:15:04.250Z,96889.00
2022-08-25T06:17:31.628Z,96886.00
2022-08-25T06:19:58.780Z,96878.00
2022-08-25T06:22:25.881Z,96877.00
2022-08-25T06:24:53.267Z,96869.00
2022-08-25T06:27:20.439Z,96870.00
2022-08-25T06:29:47.622Z,96868.00
2022-08-25T06:32:14.844Z,96868.00
2022-08-25T06:34:41.954Z,96867.00
2022-08-25T06:37:09.049Z,96862.00
2022-08-25T06:39:36.165Z,96866.00
2022-08-25T06:42:03.342Z,96869.00
2022-08-25T06:44:30.457Z,96867.00
2022-08-25T06:46:57.657Z,96867.00
2022-08-25T06:49:27.836Z,96875.00
2022-08-25T06:51:55.096Z,96870.00
2022-08-25T06:54:22.197Z,96869.00
2022-08-25T06:56:49.575Z,96868.00
2022-08-25T06:59:17.506Z,96875.00
2022-08-25T07:01:44.933Z,96871.00
2022-08-25T07:04:12.792Z,96877.00
2022-08-25T07:06:40.682Z,96877.00
2022-08-25T07:09:08.749Z,96871.00
2022-08-25T07:11:35.895Z,96871.00
2022-08-25T07:14:06.831Z,96872.00
2022-08-25T07:16:34.746Z,96871.00
2022-08-25T07:19:02.019Z,96875.00
2022-08-25T07:21:33.375Z,96874.00
2022-08-25T07:24:01.567Z,96877.00
2022-08-25T07:26:38.825Z,96872.00
2022-08-25T07:29:08.390Z,96880.00
2022-08-25T07:31:35.572Z,96871.00
2022-08-25T07:34:21.243Z,96878.00
2022-08-25T07:36:48.390Z,96882.00
2022-08-25T07:39:16.606Z,96883.00
2022-08-25T07:41:44.014Z,96882.00
2022-08-25T07:44:12.907Z,96881.00
2022-08-25T07:46:40.250Z,96884.00
2022-08-25T07:49:16.667Z,96884.00
2022-08-25T07:52:04.662Z,96882.00
2022-08-25T07:54:34.522Z,96880.00
2022-08-25T07:57:06.114Z,96888.00
2022-08-25T07:59:39.752Z,96893.00
2022-08-25T08:02:18.315Z,96895.00
2022-08-25T08:04:50.232Z,96891.00
2022-08-25T08:07:23.049Z,96892.00
2022-08-25T08:09:56.429Z,96887.00
2022-08-25T08:12:33.976Z,96887.00
2022-08-25T08:15:01.300Z,96890.00
2022-08-25T08:17:28.576Z,96898.00
2022-08-25T08:19:55.706Z,96898.00
2022-08-25T08:22:23.397Z,96902.00
2022-08-25T08:24:54.571Z,96896.00
2022-08-25T08:27:23.710Z,96895.00
2022-08-25T08:29:50.922Z,96894.00
2022-08-25T08:32:18.696Z,96897.00
2022-08-25T08:34:47.007Z,96904.00
2022-08-25T08:37:18.565Z,96902.00
2022-08-25T08:39:48.477Z,96903.00
2022-08-25T08:42:18.779Z,96902.00
2022-08-25T08:44:45.966Z,96907.00
2022-08-25T08:47:13.034Z,96901.00
2022-08-25T08:49:50.606Z,96904.00
2022-08-25T08:52:18.217Z,96906.00
2022-08-25T08:54:47.070Z,96905.00
2022-08-25T08:57:16.461Z,96905.00
2022-08-25T08:59:51.919Z,96903.00
2022-08-25T09:02:39.407Z,96894.00
2022-08-25T09:05:23.580Z,96900.00
2022-08-25T09:07:55.057Z,96886.00
2022-08-25T09:10:25.531Z,96898.00
2022-08-25T09:12:57.330Z,96894.00
2022-08-25T09:15:58.993Z,96892.00
2022-08-25T09:18:41.109Z,96880.00
2022-08-25T09:21:34.554Z,96890.00
2022-08-25T09:24:05.649Z,96893.00
2022-08-25T09:26:51.341Z,96890.00
2022-08-25T09:29:20.513Z,96899.00
2022-08-25T09:34:46.072Z,96890.00
2022-08-25T09:37:39.623Z,96885.00
2022-08-25T09:40:20.518Z,96877.00
2022-08-25T09:45:43.683Z,96877.00
2022-08-25T09:48:24.369Z,96877.00
2022-08-25T09:50:52.058Z,96877.00
2022-08-25T09:53:19.559Z,96870.00
2022-08-25T09:55:53.626Z,96877.00
2022-08-25T09:58:27.304Z,96878.00
2022-08-25T10:01:27.170Z,96871.00
2022-08-25T10:04:05.732Z,96859.00
2022-08-25T10:06:46.063Z,96856.00
2022-08-25T10:09:21.338Z,96871.00
2022-08-25T10:11:49.003Z,96871.00
2022-08-25T10:14:16.384Z,96869.00
2022-08-25T10:16:46.863Z,96870.00
2022-08-25T10:19:17.358Z,96867.00
2022-08-25T10:21:44.470Z,96870.00
2022-08-25T10:24:12.279Z,96863.00
2022-08-25T10:26:43.853Z,96861.00
2022-08-25T10:29:29.890Z,96858.00
2022-08-25T10:32:02.177Z,96854.00
2022-08-25T10:34:51.803Z,96846.00
2022-08-25T10:37:34.783Z,96848.00
2022-08-25T10:40:01.959Z,96850.00
2022-08-25T10:42:47.742Z,96850.00
2022-08-25T10:45:40.311Z,96842.00
2022-08-25T10:48:13.296Z,96840.00
2022-08-25T10:50:45.478Z,96841.00
2022-08-25T10:53:16.005Z,96831.00
2022-08-25T10:55:48.038Z,96826.00
2022-08-25T10:58:23.317Z,96828.00
2022-08-25T11:00:54.632Z,96832.00
2022-08-25T11:03:40.649Z,96828.00
2022-08-25T11:06:10.081Z,96820.00
2022-08-25T11:08:40.255Z,96817.00
2022-08-25T11:11:09.753Z,96817.00
2022-08-25T11:13:48.482Z,96817.00
2022-08-25T11:16:21.455Z,96814.00
2022-08-25T11:18:54.352Z,96817.00
2022-08-25T11:21:42.963Z,96806.00
2022-08-25T11:24:28.907Z,96811.00
2022-08-25T11:27:02.264Z,96806.00
2022-08-25T11:29:35.823Z,96812.00
2022-08-25T11:32:03.846Z,96804.00
2022-08-25T11:34:33.062Z,96807.00
2022-08-25T11:37:07.736Z,96806.00
2022-08-25T11:39:47.570Z,96800.00
2022-08-25T11:42:33.887Z,96796.00
2022-08-25T11:45:07.768Z,96793.00
2022-08-25T11:47:51.308Z,96791.00
2022-08-25T11:50:21.744Z,96788.00
2022-08-25T11:53:03.807Z,96787.00
2022-08-25T11:56:16.785Z,96790.00
2022-08-25T11:59:19.329Z,96786.00
2022-08-25T12:02:07.445Z,96787.00
2022-08-25T12:04:44.755Z,96782.00
2022-08-25T12:07:17.132Z,96780.00
2022-08-25T12:09:48.529Z,96791.00
2022-08-25T12:12:27.984Z,96783.00
2022-08-25T12:14:55.099Z,96780.00
2022-08-25T12:17:24.386Z,96779.00
2022-08-25T12:19:53.102Z,96769.00
2022-08-25T12:22:22.073Z,96774.00
2022-08-25T12:24:52.043Z,96769.00
2022-08-25T12:27:25.150Z,96764.00
2022-08-25T12:30:16.049Z,96767.00
2022-08-25T12:32:57.652Z,96770.00
2022-08-25T12:35:32.048Z,96766.00
2022-08-25T12:38:00.397Z,96762.00
2022-08-25T12:40:29.377Z,96769.00
2022-08-25T12:43:10.629Z,96765.00
2022-08-25T12:45:42.458Z,96761.00
2022-08-25T12:48:27.867Z,96757.00
2022-08-25T12:51:16.070Z,96758.00
2022-08-25T12:53:47.134Z,96761.00
2022-08-25T12:56:22.731Z,96758.00
2022-08-25T12:59:01.139Z,96745.00
2022-08-25T13:01:35.893Z,96752.00
2022-08-25T13:04:03.523Z,96754.00
2022-08-25T13:06:37.007Z,96754.00
2022-08-25T13:09:16.800Z,96746.00
2022-08-25T13:11:47.029Z,96746.00
2022-08-25T13:14:26.777Z,96750.00
2022-08-25T13:16:54.897Z,96740.00
2022-08-25T13:19:22.513Z,96745.00
2022-08-25T13:21:49.617Z,96736.00
2022-08-25T13:24:21.918Z,96733.00
2022-08-25T13:26:50.561Z,96725.00
2022-08-25T13:29:22.300Z,96723.00
2022-08-25T13:31:50.750Z,96719.00
2022-08-25T13:34:19.692Z,96725.00
2022-08-25T13:37:05.800Z,96715.00
2022-08-25T13:39:54.843Z,96727.00
2022-08-25T13:42:27.439Z,96719.00
2022-08-25T13:44:56.372Z,96713.00
2022-08-25T13:47:33.917Z,96715.00
2022-08-25T13:50:16.495Z,96722.00
2022-08-25T13:52:47.391Z,96714.00
2022-08-25T13:55:19.784Z,96717.00
2022-08-25T13:57:47.503Z,96705.00
2022-08-25T14:00:14.685Z,96715.00
2022-08-25T14:02:45.789Z,96708.00
2022-08-25T14:05:28.445Z,96705.00
2022-08-25T14:08:09.146Z,96695.00
2022-08-25T14:10:44.016Z,96702.00
2022-08-25T14:13:12.891Z,96701.00
2022-08-25T14:15:40.226Z,96701.00
2022-08-25T14:18:14.088Z,96703.00
2022-08-25T14:20:49.275Z,96703.00
2022-08-25T14:23:19.227Z,96704.00
2022-08-25T14:25:46.981Z,96704.00
2022-08-25T14:28:15.574Z,96702.00
2022-08-25T14:30:46.009Z,96695.00
2022-08-25T14:33:14.190Z,96700.00
2022-08-25T14:35:41.974Z,96700.00
2022-08-25T14:38:09.970Z,96703.00
2022-08-25T14:40:37.848Z,96707.00
2022-08-25T14:43:05.918Z,96693.00
2022-08-25T14:45:38.452Z,96694.00
2022-08-25T14:48:10.428Z,96694.00
2022-08-25T14:50:38.255Z,96700.00
2022-08-25T14:53:09.559Z,96690.00
2022-08-25T14:55:37.040Z,96690.00
2022-08-25T14:58:04.306Z,96694.00
2022-08-25T15:00:35.544Z,96678.00
2022-08-25T15:03:03.041Z,96685.00
2022-08-25T15:05:31.822Z,96682.00
2022-08-25T15:08:17.693Z,96684.00
2022-08-25T15:10:47.604Z,96685.00
2022-08-25T15:13:15.001Z,96678.00
2022-08-25T15:15:52.362Z,96675.00
2022-08-25T15:18:22.877Z,96675.00
2022-08-25T15:20:55.908Z,96679.00
2022-08-25T15:23:31.139Z,96670.00
2022-08-25T15:25:58.657Z,96669.00
2022-08-25T15:28:26.523Z,96671.00
2022-08-25T15:30:58.327Z,96675.00
2022-08-25T15:33:26.686Z,96671.00
2022-08-25T15:35:54.131Z,96670.00
2022-08-25T15:38:21.481Z,96666.00
2022-08-25T15:40:48.590Z,96664.00
2022-08-25T15:43:15.738Z,96663.00
2022-08-25T15:45:46.266Z,96659.00
2022-08-25T15:48:13.623Z,96668.00
2022-08-25T15:50:51.097Z,96661.00
2022-08-25T15:53:57.520Z,96667.00
2022-08-25T15:56:34.760Z,96654.00
2022-08-25T15:59:40.235Z,96654.00
2022-08-25T16:02:15.192Z,96660.00
2022-08-25T16:04:46.534Z,96644.00
2022-08-25T16:09:59.380Z,96652.00
2022-08-25T16:12:37.653Z,96652.00
2022-08-25T16:15:05.683Z,96660.00
2022-08-25T16:17:32.837Z,96658.00
2022-08-25T16:20:00.054Z,96655.00
2022-08-25T16:22:27.233Z,96665.00
2022-08-25T16:24:56.168Z,96664.00
2022-08-25T16:27:25.066Z,96667.00
2022-08-25T16:29:52.477Z,96662.00
2022-08-25T16:32:22.006Z,96657.00
2022-08-25T16:34:50.368Z,96658.00
2022-08-25T16:37:17.490Z,96650.00
2022-08-25T16:39:45.743Z,96646.00
2022-08-25T16:42:13.411Z,96651.00
2022-08-25T16:44:40.650Z,96644.00
2022-08-25T16:47:08.830Z,96644.00
2022-08-25T16:49:36.423Z,96646.00
2022-08-25T16:52:25.067Z,96645.00
2022-08-25T16:55:14.679Z,96643.00
2022-08-25T16:57:46.068Z,96649.00
2022-08-25T17:00:17.113Z,96642.00
2022-08-25T17:02:44.316Z,96646.00
2022-08-25T17:05:12.557Z,96646.00
2022-08-25T17:07:39.734Z,96642.00
2022-08-25T17:10:07.366Z,96642.00
2022-08-25T17:12:40.578Z,96640.00
2022-08-25T17:15:07.838Z,96642.00
2022-08-25T17:17:36.398Z,96643.00
2022-08-25T17:20:04.581Z,96644.00
2022-08-25T17:22:32.151Z,96636.00
2022-08-25T17:25:01.187Z,96642.00
2022-08-25T17:27:28.767Z,96646.00
2022-08-25T17:29:56.044Z,96646.00
2022-08-25T17:32:28.961Z,96644.00
2022-08-25T17:34:58.024Z,96651.00
2022-08-25T17:37:25.638Z,96658.00
2022-08-25T17:39:56.806Z,96653.00
2022-08-25T17:42:31.582Z,96659.00
2022-08-25T17:45:09.991Z,96656.00
2022-08-25T17:47:41.545Z,96658.00
2022-08-25T17:50:17.531Z,96660.00
2022-08-25T17:52:44.656Z,96657.00
2022-08-25T17:55:12.059Z,96663.00
2022-08-25T17:57:39.291Z,96655.00
2022-08-25T18:00:10.409Z,96662.00
2022-08-25T18:02:38.390Z,96659.00
2022-08-25T18:05:06.093Z,96656.00
2022-08-25T18:07:33.323Z,96662.00
2022-08-25T18:10:01.105Z,96668.00
2022-08-25T18:12:28.214Z,96672.00
2022-08-25T18:14:55.323Z,96667.00
2022-08-25T18:17:23.050Z,96668.00
2022-08-25T18:19:50.725Z,96670.00
2022-08-25T18:22:18.045Z,96675.00
2022-08-25T18:24:45.511Z,96674.00
2022-08-25T18:27:13.544Z,96676.00
2022-08-25T18:29:41.814Z,96680.00
2022-08-25T18:32:09.617Z,96674.00
2022-08-25T18:34:39.564Z,96685.00
2022-08-25T18:37:26.230Z,96682.00
2022-08-25T18:40:12.032Z,96680.00
2022-08-25T18:42:41.141Z,96685.00
2022-08-25T18:45:09.416Z,96673.00
2022-08-25T18:47:39.631Z,96691.00
2022-08-25T18:50:07.854Z,96687.00
2022-08-25T18:52:34.956Z,96695.00
2022-08-25T18:55:03.016Z,96696.00
2022-08-25T18:57:30.506Z,96690.00
2022-08-25T18:59:57.623Z,96697.00
2022-08-25T19:02:25.047Z,96701.00
2022-08-25T19:04:52.804Z,96696.00
2022-08-25T19:07:19.964Z,96702.00
2022-08-25T19:09:47.086Z,96703.00
2022-08-25T19:12:22.186Z,96701.00
2022-08-25T19:14:50.067Z,96706.00
2022-08-25T19:17:17.304Z,96708.00
2022-08-25T19:19:44.611Z,96706.00
2022-08-25T19:22:26.609Z,96699.00
2022-08-25T19:24:59.487Z,96704.00
2022-08-25T19:27:26.630Z,96701.00
2022-08-25T19:29:53.848Z,96705.00
2022-08-25T19:32:21.506Z,96707.00
2022-08-25T19:34:51.373Z,96712.00
2022-08-25T19:37:19.105Z,96701.00
2022-08-25T19:39:53.014Z,96712.00
2022-08-25T19:42:36.771Z,96706.00
2022-08-25T19:45:06.838Z,96704.00
2022-08-25T19:47:34.170Z,96707.00
2022-08-25T19:50:01.603Z,96705.00
2022-08-25T19:52:28.924Z,96708.00
2022-08-25T19:54:56.065Z,96705.00
2022-08-25T19:57:28.536Z,96706.00
2022-08-25T20:00:11.925Z,96704.00
2022-08-25T20:02:39.706Z,96704.00
2022-08-25T20:05:07.813Z,96707.00
2022-08-25T20:07:42.402Z,96712.00
2022-08-25T20:10:14.325Z,96706.00
2022-08-25T20:12:47.691Z,96708.00
2022-08-25T20:15:16.504Z,96709.00
2022-08-25T20:17:44.298Z,96712.00
2022-08-25T20:20:13.558Z,96711.00
2022-08-25T20:22:40.790Z,96713.00
2022-08-25T20:25:13.610Z,96718.00
2022-08-25T20:27:42.335Z,96711.00
2022-08-25T20:30:14.279Z,96714.00
2022-08-25T20:33:24.534Z,96713.00
2022-08-25T20:36:15.601Z,96711.00
2022-08-25T20:39:08.177Z,96710.00
2022-08-25T20:41:40.065Z,96706.00
2022-08-25T20:44:08.242Z,96715.00
2022-08-25T20:46:35.466Z,96713.00
2022-08-25T20:49:05.417Z,96714.00
2022-08-25T20:51:32.596Z,96717.00
2022-08-25T20:53:59.819Z,96717.00
2022-08-25T20:56:29.728Z,96718.00
2022-08-25T20:58:56.871Z,96719.00
2022-08-25T21:01:37.534Z,96721.00
2022-08-25T21:04:05.956Z,96723.00
2022-08-25T21:06:36.418Z,96725.00
2022-08-25T21:09:15.639Z,96724.00
2022-08-25T21:11:43.560Z,96716.00
2022-08-25T21:14:10.658Z,96718.00
2022-08-25T21:16:38.317Z,96721.00
2022-08-25T21:19:06.025Z,96715.00
2022-08-25T21:21:37.516Z,96725.00
2022-08-25T21:24:08.555Z,96721.00
2022-08-25T21:26:37.590Z,96726.00
2022-08-25T21:29:15.828Z,96712.00
2022-08-25T21:31:43.503Z,96718.00
2022-08-25T21:34:10.817Z,96717.00
2022-08-25T21:36:39.110Z,96724.00
2022-08-25T21:39:06.463Z,96728.00
2022-08-25T21:41:34.285Z,96718.00
2022-08-25T21:44:01.438Z,96717.00
2022-08-25T21:46:30.890Z,96717.00
2022-08-25T21:48:58.872Z,96722.00
2022-08-25T21:51:31.482Z,96720.00
2022-08-25T21:54:11.462Z,96711.00
2022-08-25T21:56:42.698Z,96713.00
2022-08-25T21:59:11.261Z,96723.00
2022-08-25T22:01:38.568Z,96718.00
2022-08-25T22:04:05.963Z,96718.00
2022-08-25T22:06:33.825Z,96716.00
2022-08-25T22:09:00.978Z,96720.00
2022-08-25T22:11:28.285Z,96718.00
2022-08-25T22:14:01.040Z,96719.00
2022-08-25T22:16:28.207Z,96721.00
2022-08-25T22:18:56.446Z,96713.00
2022-08-25T22:21:23.712Z,96710.00
2022-08-25T22:23:51.198Z,96709.00
2022-08-25T22:26:22.133Z,96710.00
2022-08-25T22:28:49.367Z,96713.00
2022-08-25T22:31:20.745Z,96715.00
2022-08-25T22:33:48.570Z,96709.00
2022-08-25T22:36:24.447Z,96709.00
2022-08-25T22:38:52.550Z,96718.00
2022-08-25T22:41:21.381Z,96712.00
2022-08-25T22:43:52.974Z,96707.00
2022-08-25T22:46:21.384Z,96707.00
2022-08-25T22:48:50.254Z,96709.00
2022-08-25T22:51:18.574Z,96704.00
2022-08-25T22:53:46.878Z,96713.00
2022-08-25T22:56:17.281Z,96703.00
2022-08-25T22:58:51.772Z,96701.00
2022-08-25T23:01:20.595Z,96701.00
2022-08-25T23:03:47.954Z,96700.00
2022-08-25T23:06:18.659Z,96694.00
2022-08-25T23:08:48.269Z,96693.00
2022-08-25T23:11:15.550Z,96698.00
2022-08-25T23:13:42.776Z,96701.00
2022-08-25T23:16:10.068Z,96701.00
2022-08-25T23:18:41.822Z,96698.00
2022-08-25T23:21:29.536Z,96694.00
2022-08-25T23:24:02.448Z,96694.00
2022-08-25T23:26:31.429Z,96685.00
2022-08-25T23:28:58.777Z,96679.00
2022-08-25T23:31:25.924Z,96684.00
2022-08-25T23:33:53.058Z,96687.00
2022-08-25T23:36:21.677Z,96684.00
2022-08-25T23:38:51.524Z,96683.00
2022-08-25T23:41:19.997Z,96685.00
2022-08-25T23:43:47.881Z,96676.00
2022-08-25T23:46:16.835Z,96671.00
2022-08-25T23:48:44.519Z,96672.00
2022-08-25T23:51:11.898Z,96668.00
2022-08-25T23:53:39.062Z,96672.00
2022-08-25T23:56:06.398Z,96666.00
2022-08-25T23:58:33.544Z,96662.00
